Time;durP1;ratioP1;P1;durP2;ratioP2;P2;SDS_P1;SDS_P2;PMS_P1;PMS_P2;Temp;Humidity;BMP_temperature;BMP_pressure;BME280_temperature;BME280_humidity;BME280_pressure;Samples;Min_cycle;Max_cycle;Signal;HPM_P1;HPM_P2
2022/07/30 00:01:57;;;;;;;1.27;0.40;;;;;;;23.05;38.57;101782.13;16143271;19;129516;-62
2022/07/30 00:07:19;;;;;;;1.70;0.60;;;;;;;23.05;38.64;101782.13;16140271;19;130729;-62
2022/07/30 00:12:41;;;;;;;1.05;0.45;;;;;;;23.04;38.74;101777.66;16143188;19;129543;-61
2022/07/30 00:18:03;;;;;;;1.23;0.57;;;;;;;23.03;38.58;101773.16;16135983;19;128878;-62
2022/07/30 00:23:25;;;;;;;1.20;0.60;;;;;;;23.03;38.55;101769.53;16143019;19;129472;-62
2022/07/30 00:28:46;;;;;;;0.98;0.47;;;;;;;23.03;38.82;101767.59;16143613;19;129507;-63
2022/07/30 00:34:08;;;;;;;0.28;0.28;;;;;;;23.01;38.75;101761.44;16142005;19;129352;-62
2022/07/30 00:39:30;;;;;;;0.75;0.40;;;;;;;23.02;39.12;101763.09;16142560;19;130871;-62
2022/07/30 00:44:52;;;;;;;0.65;0.32;;;;;;;23.02;38.85;101765.06;16136224;19;129736;-61
2022/07/30 00:50:15;;;;;;;1.42;0.50;;;;;;;23.00;38.82;101762.53;16142613;19;130892;-61
2022/07/30 00:55:37;;;;;;;0.80;0.40;;;;;;;23.01;38.81;101760.59;16139478;19;129341;-61
2022/07/30 01:00:59;;;;;;;1.15;0.40;;;;;;;23.00;39.10;101759.75;16139858;19;129611;-61
2022/07/30 01:06:20;;;;;;;1.45;0.40;;;;;;;22.99;38.82;101760.84;16140457;19;129414;-62
2022/07/30 01:11:43;;;;;;;0.55;0.47;;;;;;;23.00;39.09;101751.38;16186614;19;129359;-61
2022/07/30 01:17:05;;;;;;;1.23;0.40;;;;;;;22.99;38.75;101746.91;16193500;19;129934;-61
2022/07/30 01:22:27;;;;;;;0.28;0.20;;;;;;;22.98;39.02;101753.56;16201030;19;128863;-61
2022/07/30 01:27:57;;;;;;;1.30;0.40;;;;;;;22.98;39.17;101759.16;16198728;19;129280;-60
2022/07/30 01:33:22;;;;;;;0.32;0.32;;;;;;;22.99;39.22;101760.00;16198361;19;129282;-61
2022/07/30 01:38:45;;;;;;;0.82;0.40;;;;;;;22.97;39.07;101748.22;16193919;19;129180;-61
2022/07/30 01:44:10;;;;;;;1.15;0.35;;;;;;;22.98;38.90;101747.13;16195899;19;129076;-62
2022/07/30 01:49:35;;;;;;;0.55;0.30;;;;;;;22.96;39.05;101744.63;16203710;19;128985;-61
2022/07/30 01:55:01;;;;;;;0.93;0.30;;;;;;;22.95;39.18;101748.50;16193950;19;129719;-61
2022/07/30 02:00:27;;;;;;;0.82;0.38;;;;;;;22.96;38.87;101750.19;16202674;19;130455;-61
2022/07/30 02:05:54;;;;;;;1.65;0.45;;;;;;;22.94;39.12;101757.97;16141978;19;130436;-62
2022/07/30 02:17:01;;;;;;;2.35;0.60;;;;;;;22.93;39.28;101767.44;16131765;19;130312;-58
2022/07/30 02:22:29;;;;;;;3.92;0.50;;;;;;;22.93;39.46;101766.59;16136819;19;130873;-58
2022/07/30 02:27:57;;;;;;;3.60;0.50;;;;;;;22.92;39.05;101762.13;16136729;19;129030;-59
2022/07/30 02:33:24;;;;;;;1.17;0.47;;;;;;;22.88;39.33;101754.22;16130786;19;129921;-58
2022/07/30 02:38:49;;;;;;;2.50;0.40;;;;;;;22.88;39.03;101768.19;16136978;19;129668;-58
2022/07/30 02:44:17;;;;;;;4.30;0.50;;;;;;;22.89;39.16;101769.03;16146499;19;130084;-58
2022/07/30 02:49:40;;;;;;;1.00;0.40;;;;;;;22.87;39.31;101771.22;16149848;19;129907;-59
2022/07/30 02:55:04;;;;;;;2.13;0.50;;;;;;;22.85;39.42;101762.28;16146254;19;130605;-58
2022/07/30 03:00:29;;;;;;;0.50;0.30;;;;;;;22.86;39.56;101773.16;16146778;19;130121;-59
2022/07/30 03:05:51;;;;;;;0.60;0.40;;;;;;;22.85;39.17;101781.78;16148967;19;129589;-58
2022/07/30 03:11:17;;;;;;;0.55;0.30;;;;;;;22.85;39.01;101776.22;16148684;19;129531;-58
2022/07/30 03:16:44;;;;;;;1.45;0.30;;;;;;;22.84;39.19;101774.53;16145427;19;130207;-58
2022/07/30 03:22:08;;;;;;;0.52;0.30;;;;;;;22.82;39.18;101766.44;16146152;19;130565;-58
2022/07/30 03:27:31;;;;;;;0.65;0.30;;;;;;;22.82;39.29;101768.34;16146244;19;130311;-59
2022/07/30 03:32:54;;;;;;;0.50;0.22;;;;;;;22.81;39.59;101775.03;16143758;19;129896;-59
2022/07/30 03:38:19;;;;;;;1.30;0.30;;;;;;;22.80;39.19;101778.91;16140269;19;129626;-58
2022/07/30 03:43:40;;;;;;;0.77;0.30;;;;;;;22.78;38.98;101781.97;16138771;19;131444;-59
2022/07/30 03:49:04;;;;;;;2.28;0.28;;;;;;;22.79;39.21;101771.63;16144406;19;131151;-68
2022/07/30 03:54:26;;;;;;;0.73;0.20;;;;;;;22.77;38.91;101774.69;16142398;19;130336;-63
2022/07/30 03:59:50;;;;;;;0.98;0.52;;;;;;;22.76;39.25;101784.16;16145998;19;130934;-70
2022/07/30 04:05:13;;;;;;;0.43;0.20;;;;;;;22.77;38.94;101782.22;16143276;19;128943;-64
2022/07/30 04:10:34;;;;;;;0.65;0.20;;;;;;;22.77;39.21;101796.19;16143394;19;129094;-60
2022/07/30 04:16:15;;;;;;;0.82;0.20;;;;;;;22.74;39.51;101790.00;16141246;19;130029;-58
2022/07/30 04:21:59;;;;;;;0.77;0.30;;;;;;;22.72;39.43;101795.00;16142662;19;130268;-59
2022/07/30 04:27:24;;;;;;;0.40;0.20;;;;;;;22.72;39.33;101811.72;16142911;19;129529;-58
2022/07/30 04:32:45;;;;;;;0.87;0.20;;;;;;;22.73;39.20;101826.50;16141870;19;130153;-58
2022/07/30 04:38:09;;;;;;;0.75;0.15;;;;;;;22.71;39.25;101829.56;16137489;19;130925;-59
2022/07/30 04:43:31;;;;;;;0.32;0.20;;;;;;;22.71;39.54;101834.28;16137711;19;129581;-58
2022/07/30 04:48:52;;;;;;;0.25;0.20;;;;;;;22.70;39.49;101830.66;16139986;19;131152;-58
2022/07/30 04:54:15;;;;;;;0.50;0.20;;;;;;;22.69;39.15;101823.38;16135517;19;128997;-58
2022/07/30 04:59:37;;;;;;;0.43;0.20;;;;;;;22.69;39.38;101828.97;16138811;19;130819;-58
2022/07/30 05:05:00;;;;;;;0.25;0.20;;;;;;;22.69;39.28;101823.38;16142688;19;129418;-58
2022/07/30 05:10:23;;;;;;;0.20;0.20;;;;;;;22.69;39.54;101828.97;16138393;19;130091;-58
2022/07/30 05:15:45;;;;;;;0.55;0.30;;;;;;;22.69;39.51;101822.56;16135573;19;130670;-59
2022/07/30 05:21:07;;;;;;;0.28;0.20;;;;;;;22.69;38.91;101837.31;16135440;19;130275;-59
2022/07/30 05:26:29;;;;;;;0.25;0.13;;;;;;;22.68;39.10;101844.00;16139077;19;129193;-58
2022/07/30 05:31:51;;;;;;;0.38;0.20;;;;;;;22.68;39.39;101844.00;16134091;19;129572;-57
2022/07/30 05:37:13;;;;;;;0.10;0.10;;;;;;;22.67;39.30;101844.25;16134984;19;129382;-59
2022/07/30 05:42:35;;;;;;;0.65;0.28;;;;;;;22.67;39.03;101842.31;16137322;19;129011;-58
2022/07/30 05:47:57;;;;;;;0.20;0.20;;;;;;;22.67;39.25;101847.88;16137209;19;129708;-59
2022/07/30 05:53:18;;;;;;;0.88;0.20;;;;;;;22.68;39.47;101854.31;16136461;19;129661;-58
2022/07/30 05:58:40;;;;;;;0.65;0.22;;;;;;;22.66;39.05;101848.97;16131340;19;130600;-58
2022/07/30 06:04:02;;;;;;;2.17;0.30;;;;;;;22.67;39.58;101859.03;16136281;19;129905;-58
2022/07/30 06:09:24;;;;;;;0.10;0.10;;;;;;;22.67;39.67;101858.22;16132976;19;129011;-58
2022/07/30 06:14:57;;;;;;;0.20;0.17;;;;;;;22.66;39.30;101851.75;16147589;19;129508;-57
2022/07/30 06:20:20;;;;;;;0.30;0.28;;;;;;;22.67;39.39;101847.88;16149667;19;128924;-58
2022/07/30 06:25:42;;;;;;;0.40;0.25;;;;;;;22.71;39.45;101853.78;16149513;19;129411;-61
2022/07/30 06:31:04;;;;;;;8.25;2.35;;;;;;;22.82;39.95;101871.56;16147046;19;129303;-63
2022/07/30 06:36:26;;;;;;;10.38;4.72;;;;;;;22.89;40.23;101873.09;16141121;19;130554;-62
2022/07/30 06:41:47;;;;;;;13.27;6.05;;;;;;;22.95;40.34;101870.44;16148250;19;129470;-61
2022/07/30 06:47:09;;;;;;;14.82;6.15;;;;;;;22.98;40.37;101875.50;16142216;19;130992;-62
2022/07/30 06:52:32;;;;;;;13.13;7.65;;;;;;;22.96;40.39;101883.28;16147004;19;128931;-61
2022/07/30 06:57:54;;;;;;;13.25;7.53;;;;;;;22.85;40.98;101876.66;16146327;19;129625;-61
2022/07/30 07:03:15;;;;;;;15.13;6.78;;;;;;;22.84;41.39;101863.81;16150320;19;130209;-61
2022/07/30 07:08:37;;;;;;;12.50;5.43;;;;;;;22.85;41.33;101863.53;16147249;19;131486;-62
2022/07/30 07:13:59;;;;;;;12.43;5.38;;;;;;;22.88;41.06;101867.78;16147413;19;130064;-60
2022/07/30 07:19:25;;;;;;;8.90;3.33;;;;;;;22.92;41.49;101866.19;16141686;19;129840;-62
2022/07/30 07:25:07;;;;;;;12.27;2.22;;;;;;;22.98;41.55;101881.94;16145496;19;133320;-61
2022/07/30 07:30:29;;;;;;;9.60;2.05;;;;;;;23.08;41.51;101886.00;16145844;19;129198;-61
2022/07/30 07:35:53;;;;;;;9.63;1.70;;;;;;;23.14;41.44;101893.38;16142869;19;129646;-61
2022/07/30 07:41:15;;;;;;;5.90;1.33;;;;;;;23.20;40.90;101878.38;16144511;19;129507;-61
2022/07/30 07:46:36;;;;;;;4.70;1.20;;;;;;;23.21;40.83;101877.28;16140174;19;129782;-61
2022/07/30 07:51:58;;;;;;;6.35;1.30;;;;;;;23.24;40.78;101876.78;16145137;19;129879;-61
2022/07/30 07:57:20;;;;;;;7.03;1.02;;;;;;;23.27;40.48;101884.63;16139161;19;131230;-61
2022/07/30 08:02:42;;;;;;;3.05;1.08;;;;;;;23.28;40.25;101877.94;16140180;19;129265;-61
2022/07/30 08:08:04;;;;;;;2.03;0.88;;;;;;;23.32;40.38;101893.09;16142970;19;131127;-62
2022/07/30 08:13:29;;;;;;;4.63;0.73;;;;;;;23.33;40.25;101885.53;16141896;19;130102;-61
2022/07/30 08:19:11;;;;;;;3.45;1.00;;;;;;;23.35;40.21;101874.97;16137517;19;129294;-62
2022/07/30 08:24:33;;;;;;;4.15;0.93;;;;;;;23.37;39.87;101874.75;16144547;19;129312;-62
2022/07/30 08:29:54;;;;;;;6.28;0.88;;;;;;;23.38;40.27;101868.06;16141399;19;130093;-61
2022/07/30 08:35:19;;;;;;;1.73;0.57;;;;;;;23.40;40.31;101872.28;16141232;19;129318;-61
2022/07/30 08:40:41;;;;;;;5.28;1.00;;;;;;;23.40;40.16;101861.09;16140729;19;129907;-61
2022/07/30 08:46:11;;;;;;;4.65;0.68;;;;;;;23.42;39.78;101866.41;16135522;19;129174;-63
2022/07/30 08:51:36;;;;;;;;;;;;;;;23.37;39.82;101855.19;16133331;19;132665;-59
2022/07/30 08:56:58;;;;;;;2.17;0.70;;;;;;;23.37;39.35;101858.81;16137539;19;129336;-60
2022/07/30 09:02:20;;;;;;;1.88;0.60;;;;;;;23.39;39.69;101861.34;16140258;19;129823;-59
2022/07/30 09:07:48;;;;;;;1.58;0.68;;;;;;;23.39;39.11;101880.88;16140122;19;130269;-59
2022/07/30 09:13:33;;;;;;;3.13;0.80;;;;;;;23.40;39.48;101883.44;16139660;19;129802;-59
2022/07/30 09:18:55;;;;;;;2.97;0.70;;;;;;;23.39;39.59;101880.88;16135167;19;130417;-59
2022/07/30 09:24:17;;;;;;;2.15;0.60;;;;;;;23.40;39.20;101893.75;16134534;19;130331;-59
2022/07/30 09:29:39;;;;;;;2.67;0.77;;;;;;;23.39;39.37;101880.88;16139580;19;130419;-59
2022/07/30 09:35:11;;;;;;;2.08;0.75;;;;;;;23.41;39.37;101873.97;16138227;19;130135;-60
2022/07/30 09:40:33;;;;;;;3.58;0.90;;;;;;;23.41;39.10;101867.53;16132236;19;129499;-61
2022/07/30 09:45:57;;;;;;;2.80;0.95;;;;;;;23.41;39.63;101856.34;16137240;19;130275;-60
2022/07/30 09:51:37;;;;;;;4.88;0.90;;;;;;;23.44;39.58;101856.72;16134321;19;129898;-60
2022/07/30 09:57:15;;;;;;;9.27;0.93;;;;;;;23.44;39.13;101856.72;16137810;19;129750;-61
2022/07/30 10:02:50;;;;;;;6.30;1.02;;;;;;;23.46;38.87;101856.44;16135888;19;130204;-61
2022/07/30 10:08:12;;;;;;;13.48;0.90;;;;;;;23.46;39.16;101857.25;16136924;19;129860;-60
2022/07/30 10:13:38;;;;;;;4.07;0.73;;;;;;;23.47;38.92;101863.72;16138166;19;129032;-61
2022/07/30 10:19:06;;;;;;;2.58;0.70;;;;;;;23.50;38.98;101866.00;16133041;19;129639;-60
2022/07/30 10:24:39;;;;;;;3.35;0.85;;;;;;;23.49;39.36;101858.72;16136968;19;130260;-59
2022/07/30 10:30:04;;;;;;;1.87;0.50;;;;;;;23.48;39.26;101862.63;16136828;19;129573;-61
2022/07/30 10:35:26;;;;;;;2.20;0.70;;;;;;;23.48;38.96;101859.81;16136200;19;129132;-61
2022/07/30 10:41:11;;;;;;;2.20;0.80;;;;;;;23.49;39.04;101865.13;16133357;19;129085;-60
2022/07/30 10:47:03;;;;;;;1.73;0.52;;;;;;;23.49;39.19;101865.13;16129919;19;130124;-61
2022/07/30 10:52:49;;;;;;;0.63;0.47;;;;;;;23.51;39.39;101862.06;16130476;19;129269;-61
2022/07/30 10:58:12;;;;;;;2.38;0.70;;;;;;;23.51;39.25;101860.16;16134584;19;129077;-60
2022/07/30 11:03:36;;;;;;;1.13;0.43;;;;;;;23.51;39.08;101856.50;16150307;19;129456;-60
2022/07/30 11:09:38;;;;;;;1.23;0.50;;;;;;;23.51;38.88;101856.50;16149271;19;129337;-60
2022/07/30 11:15:02;;;;;;;2.60;0.50;;;;;;;23.50;39.44;101854.84;16147199;19;128862;-61
2022/07/30 11:20:39;;;;;;;0.98;0.45;;;;;;;23.53;39.08;101859.88;16143058;19;129330;-60
2022/07/30 11:26:02;;;;;;;0.95;0.30;;;;;;;23.54;38.93;101855.97;16148220;19;129389;-60
2022/07/30 11:31:30;;;;;;;1.30;0.60;;;;;;;23.54;39.40;101850.41;16148989;19;130075;-60
2022/07/30 11:37:15;;;;;;;0.52;0.40;;;;;;;23.54;39.29;101841.19;16145382;19;130089;-60
2022/07/30 11:42:43;;;;;;;0.98;0.52;;;;;;;23.53;39.35;101848.72;16145933;19;129168;-60
2022/07/30 11:48:10;;;;;;;1.17;0.50;;;;;;;23.54;39.33;101844.81;16146577;19;131397;-60
2022/07/30 11:53:32;;;;;;;2.28;0.63;;;;;;;23.54;39.19;101842.03;16142123;19;129165;-60
2022/07/30 11:59:08;;;;;;;4.70;0.80;;;;;;;23.57;39.41;101844.31;15904727;19;3008722;-61
2022/07/30 12:04:29;;;;;;;3.88;0.40;;;;;;;23.55;39.41;101840.91;16144280;19;129005;-60
2022/07/30 12:09:51;;;;;;;1.77;0.47;;;;;;;23.57;39.38;101844.31;16141819;19;129564;-59
2022/07/30 12:15:34;;;;;;;2.53;0.50;;;;;;;23.59;39.42;101850.50;16144686;19;129284;-60
2022/07/30 12:20:58;;;;;;;2.83;0.70;;;;;;;23.60;39.58;101846.63;16139355;19;129771;-60
2022/07/30 12:26:25;;;;;;;1.53;0.70;;;;;;;23.61;39.87;101834.34;16143141;19;129694;-60
2022/07/30 12:31:47;;;;;;;3.47;0.70;;;;;;;23.58;39.59;101826.47;16142720;19;130476;-60
2022/07/30 12:37:09;;;;;;;8.25;1.20;;;;;;;23.58;39.73;101832.06;16140385;19;129656;-61
2022/07/30 12:42:31;;;;;;;4.45;0.98;;;;;;;23.60;39.55;101827.06;16142650;19;130072;-61
2022/07/30 12:47:53;;;;;;;4.00;1.75;;;;;;;23.64;39.66;101836.59;16142007;19;129632;-60
2022/07/30 12:53:14;;;;;;;5.55;1.55;;;;;;;23.65;39.85;101835.50;16138459;19;129601;-59
2022/07/30 12:58:37;;;;;;;5.32;1.45;;;;;;;23.65;40.08;101827.13;16139162;19;130599;-59
2022/07/30 13:04:04;;;;;;;5.40;1.10;;;;;;;23.65;39.97;101829.91;16143472;19;129342;-60
2022/07/30 13:09:26;;;;;;;4.38;0.88;;;;;;;23.63;39.86;101817.31;16141574;19;129697;-60
2022/07/30 13:14:47;;;;;;;3.47;0.98;;;;;;;23.62;39.90;101822.06;16141892;19;129317;-60
2022/07/30 13:20:10;;;;;;;5.70;1.17;;;;;;;23.61;39.93;101812.00;16135984;19;129338;-60
2022/07/30 13:25:31;;;;;;;4.50;1.20;;;;;;;23.59;39.72;101804.97;16135229;19;129486;-60
2022/07/30 13:31:01;;;;;;;4.50;0.93;;;;;;;23.59;39.86;101811.41;16138685;19;129505;-60
2022/07/30 13:36:22;;;;;;;4.80;1.10;;;;;;;23.60;39.81;101804.72;16136129;19;129880;-60
2022/07/30 13:41:44;;;;;;;2.75;0.93;;;;;;;23.59;39.99;101796.59;16137503;19;129626;-58
2022/07/30 13:47:09;;;;;;;1.35;0.60;;;;;;;23.60;39.82;101792.69;16137985;19;130919;-59
2022/07/30 13:52:30;;;;;;;1.13;0.70;;;;;;;23.61;39.91;101792.44;16137161;19;130557;-59
2022/07/30 13:57:52;;;;;;;2.53;0.80;;;;;;;23.61;40.20;101778.47;16134146;19;129422;-58
2022/07/30 14:03:14;;;;;;;3.13;0.90;;;;;;;23.61;39.91;101786.88;16138298;19;129284;-58
2022/07/30 14:08:37;;;;;;;2.42;0.70;;;;;;;23.61;39.77;101786.88;16138434;19;129265;-59
2022/07/30 14:13:59;;;;;;;1.80;0.70;;;;;;;23.61;39.91;101784.06;16137364;19;128864;-59
2022/07/30 14:19:21;;;;;;;1.73;0.60;;;;;;;23.62;39.80;101779.31;16135102;19;129697;-59
2022/07/30 14:24:44;;;;;;;1.30;0.70;;;;;;;23.62;40.00;101773.72;16135550;19;129240;-60
2022/07/30 14:30:08;;;;;;;0.77;0.47;;;;;;;23.62;39.71;101774.59;16137235;19;129109;-59
2022/07/30 14:35:30;;;;;;;1.40;0.52;;;;;;;23.62;39.67;101769.00;16146085;19;130384;-59
2022/07/30 14:40:51;;;;;;;3.08;0.60;;;;;;;23.63;40.21;101765.06;16147209;19;129607;-60
2022/07/30 14:46:13;;;;;;;1.48;0.52;;;;;;;23.60;39.66;101770.34;16151556;19;129856;-60
2022/07/30 14:51:36;;;;;;;10.20;1.20;;;;;;;23.64;39.31;101760.34;16149411;19;129084;-60
2022/07/30 14:56:58;;;;;;;15.35;1.40;;;;;;;23.68;39.07;101772.69;16149711;19;128912;-60
2022/07/30 15:02:20;;;;;;;8.88;1.50;;;;;;;23.74;38.50;101765.22;16150188;19;132174;-60
2022/07/30 15:07:41;;;;;;;10.23;1.33;;;;;;;23.77;38.36;101756.28;16150138;19;128849;-60
2022/07/30 15:13:03;;;;;;;9.27;1.65;;;;;;;23.79;38.16;101754.09;16149779;19;129272;-60
2022/07/30 15:18:26;;;;;;;10.23;1.58;;;;;;;23.79;37.66;101756.88;16145486;19;129104;-60
2022/07/30 15:23:50;;;;;;;6.15;1.05;;;;;;;23.77;37.11;101750.72;16150564;19;129743;-60
2022/07/30 15:29:11;;;;;;;3.22;1.30;;;;;;;23.76;37.46;101749.88;16149459;19;130209;-57
2022/07/30 15:34:34;;;;;;;7.30;1.35;;;;;;;23.76;37.15;101752.66;16149917;19;129885;-60
2022/07/30 15:39:55;;;;;;;7.55;1.40;;;;;;;23.77;37.34;101750.72;16144542;19;129390;-60
2022/07/30 15:45:18;;;;;;;5.93;1.25;;;;;;;23.76;37.32;101749.88;16144811;19;129871;-60
2022/07/30 15:50:41;;;;;;;1.00;0.90;;;;;;;23.76;37.41;101749.00;16143562;19;129081;-71
2022/07/30 15:56:03;;;;;;;4.05;1.35;;;;;;;23.75;37.44;101744.56;16145231;19;129295;-68
2022/07/30 16:01:25;;;;;;;3.95;1.10;;;;;;;23.74;37.53;101743.69;16139390;19;129085;-71
2022/07/30 16:06:47;;;;;;;4.05;1.30;;;;;;;23.73;37.50;101742.00;16143963;19;130765;-66
2022/07/30 16:12:09;;;;;;;3.15;1.08;;;;;;;23.73;37.77;101747.59;16145412;19;129203;-67
2022/07/30 16:17:31;;;;;;;8.77;1.60;;;;;;;23.73;37.53;101741.19;16145856;19;129434;-71
2022/07/30 16:22:55;;;;;;;4.77;1.23;;;;;;;23.69;38.00;101726.91;16145053;19;129327;-65
2022/07/30 16:28:17;;;;;;;5.22;1.60;;;;;;;23.69;38.32;101720.44;16143736;19;130274;-67
2022/07/30 16:33:39;;;;;;;10.25;1.70;;;;;;;23.66;38.13;101727.41;16139452;19;129339;-68
2022/07/30 16:39:01;;;;;;;9.02;2.90;;;;;;;23.66;38.74;101725.44;16142856;19;130598;-60
2022/07/30 16:44:25;;;;;;;7.45;2.20;;;;;;;23.73;38.54;101719.66;16139265;19;129492;-59
2022/07/30 16:49:47;;;;;;;6.78;2.22;;;;;;;23.75;38.82;101713.84;16141779;19;129910;-57
2022/07/30 16:55:09;;;;;;;5.28;1.70;;;;;;;23.73;38.68;101708.50;16136466;19;128989;-58
2022/07/30 17:00:31;;;;;;;9.70;2.50;;;;;;;23.71;38.76;101707.06;16138603;19;129799;-59
2022/07/30 17:05:53;;;;;;;5.20;1.90;;;;;;;23.67;38.74;101706.75;16141452;19;128957;-59
2022/07/30 17:11:15;;;;;;;6.72;1.85;;;;;;;23.65;38.64;101715.38;16137303;19;129496;-59
2022/07/30 17:16:57;;;;;;;4.07;1.92;;;;;;;23.62;38.45;101701.97;16137189;19;129437;-59
2022/07/30 17:22:19;;;;;;;8.63;1.85;;;;;;;23.60;38.72;101698.59;16135383;19;129567;-59
2022/07/30 17:27:41;;;;;;;4.50;1.70;;;;;;;23.60;38.30;101704.16;16140131;19;129350;-59
2022/07/30 17:33:05;;;;;;;3.22;1.33;;;;;;;23.60;38.63;101703.31;16140711;19;130247;-59
2022/07/30 17:38:27;;;;;;;2.47;1.10;;;;;;;23.58;38.76;101694.31;16139517;19;129005;-60
2022/07/30 17:43:49;;;;;;;2.78;1.20;;;;;;;23.57;38.82;101698.22;16139052;19;128949;-58
2022/07/30 17:49:11;;;;;;;1.50;0.90;;;;;;;23.55;38.74;101701.28;16136834;19;129632;-60
2022/07/30 17:54:32;;;;;;;1.45;1.10;;;;;;;23.55;39.09;101706.03;16132834;19;129881;-59
2022/07/30 17:59:54;;;;;;;1.23;0.80;;;;;;;23.54;39.04;101699.56;16135434;19;131546;-59
2022/07/30 18:05:16;;;;;;;2.55;0.90;;;;;;;23.53;39.02;101697.88;16134588;19;129439;-60
2022/07/30 18:10:39;;;;;;;1.27;0.80;;;;;;;23.52;39.15;101690.63;16135602;19;129504;-60
2022/07/30 18:16:01;;;;;;;2.08;0.90;;;;;;;23.51;39.01;101694.50;16137071;19;129585;-60
2022/07/30 18:21:22;;;;;;;3.55;1.10;;;;;;;23.50;39.06;101709.59;16132979;19;128863;-60
2022/07/30 18:26:45;;;;;;;1.58;0.70;;;;;;;23.50;38.96;101692.84;16133669;19;129358;-60
2022/07/30 18:32:07;;;;;;;2.65;0.90;;;;;;;23.46;39.32;101695.28;16133800;19;128948;-57
2022/07/30 18:37:29;;;;;;;9.02;1.23;;;;;;;23.49;39.62;101694.78;16130733;19;130164;-55
2022/07/30 18:43:02;;;;;;;7.15;0.98;;;;;;;23.51;39.88;101689.78;16134974;19;129752;-59
2022/07/30 18:48:24;;;;;;;8.32;1.10;;;;;;;23.53;40.06;101697.06;16132407;19;132164;-58
2022/07/30 18:53:46;;;;;;;6.22;0.88;;;;;;;23.52;39.83;101693.41;16128409;19;129526;-59
2022/07/30 18:59:08;;;;;;;3.85;0.80;;;;;;;23.54;40.13;101699.56;16129655;19;130597;-55
2022/07/30 19:04:30;;;;;;;5.88;1.00;;;;;;;23.59;40.13;101701.63;16128442;19;130474;-57
2022/07/30 19:09:54;;;;;;;7.05;0.90;;;;;;;23.60;40.05;101693.00;16127476;19;129519;-57
2022/07/30 19:15:16;;;;;;;14.23;0.95;;;;;;;23.60;39.91;101698.59;16132948;19;129519;-59
2022/07/30 19:20:38;;;;;;;10.85;1.20;;;;;;;23.60;40.00;101704.16;16135256;19;129562;-58
2022/07/30 19:25:59;;;;;;;9.48;1.08;;;;;;;23.62;40.39;101692.72;16150053;19;129433;-57
2022/07/30 19:31:21;;;;;;;6.68;0.98;;;;;;;23.65;39.88;101698.63;16147761;19;129765;-58
2022/07/30 19:36:43;;;;;;;8.00;1.10;;;;;;;23.63;39.98;101692.44;16147653;19;129354;-59
2022/07/30 19:42:05;;;;;;;9.48;1.13;;;;;;;23.60;39.93;101698.59;16141122;19;128952;-57
2022/07/30 19:47:29;;;;;;;13.00;1.45;;;;;;;23.62;40.66;101701.97;16143043;19;128987;-59
2022/07/30 19:53:00;;;;;;;8.93;1.50;;;;;;;23.65;40.57;101704.22;16154797;19;129715;-61
2022/07/30 19:58:22;;;;;;;8.35;1.20;;;;;;;23.71;40.51;101705.09;16155482;19;129525;-61
2022/07/30 20:03:45;;;;;;;12.25;1.48;;;;;;;23.72;40.72;101711.56;16156093;19;128839;-59
2022/07/30 20:09:07;;;;;;;4.45;1.20;;;;;;;23.73;40.66;101716.88;16154661;19;129833;-60
2022/07/30 20:14:34;;;;;;;5.05;1.13;;;;;;;23.75;40.67;101709.06;16145707;19;130020;-57
2022/07/30 20:20:03;;;;;;;15.32;1.25;;;;;;;23.78;41.17;101730.03;16142781;19;129813;-57
2022/07/30 20:25:26;;;;;;;10.70;1.40;;;;;;;23.78;40.93;101724.47;16143369;19;129211;-58
2022/07/30 20:30:57;;;;;;;8.15;1.00;;;;;;;23.81;41.08;101729.53;16141724;19;129372;-58
2022/07/30 20:36:21;;;;;;;7.45;1.48;;;;;;;23.83;40.85;101732.91;16142482;19;132106;-59
2022/07/30 20:41:43;;;;;;;8.48;1.30;;;;;;;23.89;41.22;101745.81;16139314;19;128832;-58
2022/07/30 20:47:05;;;;;;;6.43;1.20;;;;;;;23.92;40.86;101748.09;16149455;19;129356;-58
2022/07/30 20:52:29;;;;;;;4.22;1.02;;;;;;;23.94;40.91;101743.09;16190631;19;128585;-58
2022/07/30 20:57:51;;;;;;;3.97;0.90;;;;;;;23.96;40.78;101738.09;16194747;19;129207;-58
2022/07/30 21:03:28;;;;;;;6.10;0.90;;;;;;;23.95;40.75;101738.31;16192726;19;129263;-68
2022/07/30 21:08:50;;;;;;;5.55;0.98;;;;;;;23.93;40.88;101730.22;16157025;19;131031;-62
2022/07/30 21:14:12;;;;;;;8.10;0.95;;;;;;;23.86;40.83;101721.22;16161899;19;129366;-67
2022/07/30 21:19:38;;;;;;;8.10;1.30;;;;;;;23.82;41.19;101728.44;16160537;19;129320;-67
2022/07/30 21:25:00;;;;;;;10.13;1.27;;;;;;;23.78;40.59;101730.03;16162451;19;128933;-67
2022/07/30 21:30:29;;;;;;;4.95;0.80;;;;;;;23.76;41.01;101730.31;16166440;19;129788;-63
2022/07/30 21:35:50;;;;;;;7.75;0.88;;;;;;;23.72;40.90;101734.72;16166255;19;128871;-67
2022/07/30 21:41:13;;;;;;;2.15;0.80;;;;;;;23.70;41.10;101734.16;16159344;19;129199;-65
2022/07/30 21:46:36;;;;;;;5.10;0.90;;;;;;;23.71;41.17;101735.00;16163725;19;129842;-65
2022/07/30 21:51:58;;;;;;;6.65;0.90;;;;;;;23.68;40.68;101727.13;16157317;19;129461;-57
2022/07/30 21:57:21;;;;;;;2.55;0.60;;;;;;;23.66;40.85;101731.03;16142831;19;129691;-60
2022/07/30 22:02:48;;;;;;;2.08;0.70;;;;;;;23.65;40.92;101722.94;16132077;19;129240;-60
2022/07/30 22:08:15;;;;;;;2.95;0.63;;;;;;;23.63;40.65;101730.72;16138017;19;128908;-60
2022/07/30 22:13:40;;;;;;;2.72;0.82;;;;;;;23.62;40.91;101734.63;16137726;19;129571;-60
2022/07/30 22:19:14;;;;;;;2.42;0.73;;;;;;;23.61;40.93;101733.78;16137187;19;129685;-60
2022/07/30 22:24:37;;;;;;;2.58;0.52;;;;;;;23.61;41.01;101732.94;16130880;19;128969;-60
2022/07/30 22:29:59;;;;;;;1.50;0.60;;;;;;;23.61;41.02;101738.50;16135612;19;130481;-60
2022/07/30 22:35:21;;;;;;;1.35;0.50;;;;;;;23.59;41.00;101724.81;16134949;19;130520;-60
2022/07/30 22:40:55;;;;;;;2.05;0.63;;;;;;;23.60;40.76;101726.50;16133243;19;129219;-59
2022/07/30 22:46:17;;;;;;;2.25;0.50;;;;;;;23.58;40.74;101728.72;16131751;19;130901;-59
2022/07/30 22:51:51;;;;;;;1.10;0.47;;;;;;;23.58;40.50;101734.31;16132584;19;130647;-60
2022/07/30 22:57:30;;;;;;;0.82;0.30;;;;;;;23.57;40.97;101746.53;16148666;19;129722;-60
2022/07/30 23:02:58;;;;;;;1.33;0.30;;;;;;;23.57;40.88;101749.34;16144032;19;129814;-60
2022/07/30 23:08:20;;;;;;;0.47;0.40;;;;;;;23.55;40.99;101751.53;16149081;19;129645;-59
2022/07/30 23:13:54;;;;;;;1.73;0.40;;;;;;;23.54;40.92;101744.25;16148572;19;129400;-60
2022/07/30 23:19:16;;;;;;;4.57;0.45;;;;;;;23.54;40.86;101741.47;16149639;19;129405;-60
2022/07/30 23:24:42;;;;;;;1.08;0.38;;;;;;;23.54;40.83;101723.88;16146080;19;129817;-60
2022/07/30 23:30:07;;;;;;;0.60;0.40;;;;;;;23.54;41.26;101702.38;16147552;19;129302;-59
2022/07/30 23:35:28;;;;;;;4.27;0.50;;;;;;;23.51;41.10;101689.78;16148887;19;130668;-60
2022/07/30 23:40:50;;;;;;;1.60;0.40;;;;;;;23.51;40.77;101697.31;16144251;19;129973;-60
2022/07/30 23:46:12;;;;;;;0.50;0.30;;;;;;;23.51;41.06;101688.91;16145323;19;129432;-60
2022/07/30 23:51:35;;;;;;;0.90;0.30;;;;;;;23.49;41.33;101705.94;16146278;19;129308;-60
2022/07/30 23:56:57;;;;;;;0.88;0.32;;;;;;;23.49;41.02;101713.50;16146108;19;129465;-59
